CheckWX is a tool to help pilots better visualize weather data.  It is not intended as a substitute for an official pre-flight weather briefing.

23:31:28 UTC

KDRO TAF
Durango-La Plata County Airport
Durango, Colorado, USA
KDRO 141740Z 1418/1518 21006KT P6SM SKC FM150800 06005KT P6SM FEW150 SCT250

Nov-14@
18:00 UTC

Nov-14 @ 18:00 UTC

Nov-15@
08:00 UTC

Nov-15 @ 08:00 UTC

KDRO 141740Z 1418/1518 21006KT P6SM SKC
Wind
  • 210° at 6 KTS
Cloud Levels
  • Clear skies

Nov-15@
08:00 UTC

Nov-15 @ 08:00 UTC

Nov-15@
18:00 UTC

Nov-15 @ 18:00 UTC

FM150800 06005KT P6SM FEW150 SCT250

From

From Standard forecast or significant change

Wind
  • 060° at 5 KTS
Cloud Levels
  • Few at 15,000' AGL
  • Scattered at 25,000' AGL